Elba, Illinois
Current Conditions -  °F | °C
As of 2:38 PM on Tuesday 27 Jan 2015 (Local Time) from KCUL Reporting Station
Overcast Overcast  
Wind Chill: 31°   Ceiling: 2800
Heat Index: 37°   Visibility: 10mi
Dew Point: 32°   Wind: 8mph
Humidity: 81%   Direction: 350°N
Pressure: 30.15"   Gusts: NA
Location:  37.8866°N, 88.266°W
Report Text: KCUL 272038Z AUTO 35007KT 10SM OVC028 03/00 A3015 RMK AO2 TSNO
Loading
Personal Weather Stations






























Interactive Weather Map New forecast layout! Learn more

10-Day Weather Forecast

Advertisements
Track Severe Weather on mobile